Time;durP1;ratioP1;P1;durP2;ratioP2;P2;SDS_P1;SDS_P2;PMS_P1;PMS_P2;Temp;Humidity;BMP_temperature;BMP_pressure;BME280_temperature;BME280_humidity;BME280_pressure;Samples;Min_cycle;Max_cycle;Signal;HPM_P1;HPM_P2
2021/05/20 00:01:15;;;;;;;25.50;22.97;;;10.40;99.90;;;;;;5075206;28;20214;-68
2021/05/20 00:03:41;;;;;;;25.33;22.60;;;10.40;99.90;;;;;;5075024;28;20171;-68
2021/05/20 00:06:06;;;;;;;25.50;22.77;;;10.40;99.90;;;;;;5075142;28;20184;-68
2021/05/20 00:08:32;;;;;;;27.20;24.37;;;10.40;99.90;;;;;;5074989;28;20194;-68
2021/05/20 00:10:58;;;;;;;27.70;24.70;;;10.40;99.90;;;;;;5074980;28;20159;-68
2021/05/20 00:13:24;;;;;;;27.00;24.17;;;10.40;99.90;;;;;;5074999;28;20159;-68
2021/05/20 00:15:49;;;;;;;27.33;24.53;;;10.40;99.90;;;;;;5075353;28;20247;-68
2021/05/20 00:18:15;;;;;;;26.70;24.00;;;10.40;99.90;;;;;;5074970;28;20160;-68
2021/05/20 00:20:41;;;;;;;29.40;25.60;;;10.40;99.90;;;;;;5074901;28;20191;-68
2021/05/20 00:23:06;;;;;;;33.77;27.70;;;10.30;99.90;;;;;;5074781;28;20528;-68
2021/05/20 00:25:32;;;;;;;34.13;27.77;;;10.30;99.90;;;;;;5074316;28;20207;-68
2021/05/20 00:27:57;;;;;;;32.97;29.43;;;10.30;99.90;;;;;;5074627;28;20574;-68
2021/05/20 00:30:23;;;;;;;34.00;30.43;;;10.20;99.90;;;;;;5074756;28;20156;-68
2021/05/20 00:32:48;;;;;;;37.30;31.27;;;10.20;99.90;;;;;;5074394;28;20183;-68
2021/05/20 00:35:14;;;;;;;39.47;33.37;;;10.20;99.90;;;;;;5074034;28;20170;-68
2021/05/20 00:37:39;;;;;;;31.47;28.17;;;10.20;99.90;;;;;;5074234;28;20244;-68
2021/05/20 00:40:06;;;;;;;31.40;28.17;;;10.20;99.90;;;;;;5074441;28;20353;-68
2021/05/20 00:42:31;;;;;;;31.50;28.17;;;10.20;99.90;;;;;;5074670;28;20160;-68
2021/05/20 00:44:59;;;;;;;31.90;27.37;;;10.20;99.90;;;;;;5074422;28;20802;-68
2021/05/20 00:47:29;;;;;;;30.27;27.23;;;10.20;99.90;;;;;;5073833;28;20520;-68
2021/05/20 00:49:55;;;;;;;30.90;27.70;;;10.20;99.90;;;;;;5074015;28;20417;-68
2021/05/20 00:52:22;;;;;;;31.67;28.40;;;10.20;99.90;;;;;;5074144;28;20936;-68
2021/05/20 00:54:50;;;;;;;30.40;27.33;;;10.20;99.90;;;;;;5074103;28;20423;-68
2021/05/20 00:57:17;;;;;;;29.67;26.77;;;10.30;99.90;;;;;;5073767;28;20941;-68
2021/05/20 00:59:42;;;;;;;30.33;27.03;;;10.30;99.90;;;;;;5074308;28;20429;-68
2021/05/20 01:02:10;;;;;;;37.27;33.27;;;10.30;99.90;;;;;;5073768;28;20796;-68
2021/05/20 01:04:36;;;;;;;37.83;33.73;;;10.30;99.90;;;;;;5073512;28;20191;-68
2021/05/20 01:07:02;;;;;;;39.77;35.17;;;10.40;99.90;;;;;;5074023;28;20411;-68
2021/05/20 01:09:27;;;;;;;41.77;37.20;;;10.40;99.90;;;;;;5073785;28;20155;-68
2021/05/20 01:11:53;;;;;;;37.77;33.70;;;10.40;99.90;;;;;;5073725;28;20178;-68
2021/05/20 01:14:19;;;;;;;41.43;34.77;;;10.40;99.90;;;;;;5073817;28;20229;-68
2021/05/20 01:16:47;;;;;;;38.83;34.60;;;10.40;99.90;;;;;;5073710;28;20447;-68
2021/05/20 01:19:13;;;;;;;32.80;29.30;;;10.40;99.90;;;;;;5073952;28;20156;-68
2021/05/20 01:21:40;;;;;;;32.73;29.33;;;10.50;99.90;;;;;;5073773;28;20397;-68
2021/05/20 01:24:07;;;;;;;30.30;27.13;;;10.40;99.90;;;;;;5073653;28;21023;-68
2021/05/20 01:26:36;;;;;;;31.90;28.27;;;10.50;99.90;;;;;;5073519;28;20978;-68
2021/05/20 01:29:02;;;;;;;32.67;29.23;;;10.50;99.90;;;;;;5073596;28;20957;-68
2021/05/20 01:31:28;;;;;;;33.27;29.50;;;10.60;99.90;;;;;;5073284;28;20417;-68
2021/05/20 01:33:53;;;;;;;32.00;28.67;;;10.50;99.90;;;;;;5073342;28;20394;-68
2021/05/20 01:36:27;;;;;;;30.03;27.13;;;10.60;99.90;;;;;;5072855;28;20183;-68
2021/05/20 01:38:57;;;;;;;32.03;28.53;;;10.60;99.90;;;;;;5073221;28;20201;-68
2021/05/20 01:41:23;;;;;;;33.37;28.90;;;10.60;99.90;;;;;;5073308;28;20393;-68
2021/05/20 01:43:48;;;;;;;33.50;29.97;;;10.60;99.90;;;;;;5073557;28;20390;-68
2021/05/20 01:46:14;;;;;;;35.00;31.17;;;10.60;99.90;;;;;;5073026;28;20668;-68
2021/05/20 01:48:41;;;;;;;42.90;33.57;;;10.70;99.90;;;;;;5073192;28;20164;-68
2021/05/20 01:53:47;;;;;;;46.20;33.90;;;10.60;99.90;;;;;;5090185;28;20518;-68
2021/05/20 01:56:16;;;;;;;40.47;31.90;;;10.70;99.90;;;;;;5090579;28;20424;-68
2021/05/20 01:58:42;;;;;;;49.37;36.80;;;10.70;99.90;;;;;;5090538;28;20478;-68
2021/05/20 02:01:08;;;;;;;48.90;37.90;;;10.70;99.90;;;;;;5090335;28;20783;-67
2021/05/20 02:03:34;;;;;;;43.00;34.23;;;10.70;99.90;;;;;;5051775;28;20402;-68
2021/05/20 02:06:02;;;;;;;40.30;33.50;;;10.70;99.90;;;;;;5061594;28;20218;-67
2021/05/20 02:08:28;;;;;;;39.70;34.67;;;10.70;99.90;;;;;;5069972;28;20387;-67
2021/05/20 02:10:55;;;;;;;41.90;34.43;;;10.70;99.90;;;;;;5070055;28;20401;-68
2021/05/20 02:13:21;;;;;;;47.70;38.80;;;10.80;99.90;;;;;;5069951;28;20449;-68
2021/05/20 02:15:47;;;;;;;46.23;36.80;;;10.80;99.90;;;;;;5069766;28;20390;-68
2021/05/20 02:18:13;;;;;;;50.70;38.33;;;10.80;99.90;;;;;;5069754;28;20451;-68
2021/05/20 02:20:39;;;;;;;55.10;41.10;;;10.80;99.90;;;;;;5050429;28;20283;-68
2021/05/20 02:23:06;;;;;;;59.40;42.87;;;10.80;99.90;;;;;;5049711;28;20427;-67
2021/05/20 02:25:32;;;;;;;56.30;42.50;;;10.80;99.90;;;;;;5049898;28;20167;-68
2021/05/20 02:27:58;;;;;;;71.57;48.17;;;10.80;99.90;;;;;;5049734;28;20395;-68
2021/05/20 02:30:26;;;;;;;65.73;48.27;;;10.80;99.90;;;;;;5060169;28;20549;-68
2021/05/20 02:32:52;;;;;;;65.37;45.53;;;10.80;99.90;;;;;;5069312;28;20489;-68
2021/05/20 02:35:18;;;;;;;64.20;47.47;;;10.70;99.90;;;;;;5068867;28;20417;-67
2021/05/20 02:37:45;;;;;;;66.47;47.90;;;10.80;99.90;;;;;;5062423;28;20172;-67
2021/05/20 02:40:11;;;;;;;70.93;49.67;;;10.70;99.90;;;;;;5069745;28;20489;-68
2021/05/20 02:42:39;;;;;;;73.30;49.73;;;10.70;99.90;;;;;;5069325;28;20452;-68
2021/05/20 02:45:07;;;;;;;69.07;48.03;;;10.70;99.90;;;;;;5069253;28;20485;-67
2021/05/20 02:47:33;;;;;;;71.63;47.70;;;10.70;99.90;;;;;;5069738;28;20433;-68
2021/05/20 02:49:59;;;;;;;70.40;46.70;;;10.70;99.90;;;;;;5069252;28;20885;-68
2021/05/20 02:52:24;;;;;;;71.10;51.40;;;10.70;99.90;;;;;;5068583;28;20203;-71
2021/05/20 02:54:50;;;;;;;64.13;45.50;;;10.70;99.90;;;;;;5069375;28;20156;-70
2021/05/20 02:57:15;;;;;;;67.57;47.67;;;10.70;99.90;;;;;;5069288;28;20160;-71
2021/05/20 02:59:41;;;;;;;65.17;47.90;;;10.70;99.90;;;;;;5068892;28;20538;-70
2021/05/20 03:02:07;;;;;;;69.37;48.73;;;10.70;99.90;;;;;;5068785;28;20156;-71
2021/05/20 03:04:34;;;;;;;74.57;49.73;;;10.70;99.90;;;;;;5058871;28;20157;-71
2021/05/20 03:07:01;;;;;;;70.90;48.60;;;10.70;99.90;;;;;;5055499;28;20391;-71
2021/05/20 03:09:27;;;;;;;62.83;47.73;;;10.70;99.90;;;;;;5054893;28;20747;-71
2021/05/20 03:11:55;;;;;;;76.60;50.07;;;10.70;99.90;;;;;;5036056;28;20477;-71
2021/05/20 03:14:21;;;;;;;80.33;53.87;;;10.70;99.90;;;;;;5035575;28;20239;-71
2021/05/20 03:16:47;;;;;;;83.67;54.27;;;10.70;99.90;;;;;;5035563;28;20376;-71
2021/05/20 03:19:13;;;;;;;87.03;53.20;;;10.70;99.90;;;;;;5035421;28;20730;-71
2021/05/20 03:21:38;;;;;;;90.87;55.57;;;10.70;99.90;;;;;;5035761;28;20164;-71
2021/05/20 03:24:04;;;;;;;86.07;52.70;;;10.70;99.90;;;;;;5035594;28;20572;-70
2021/05/20 03:26:30;;;;;;;76.80;51.13;;;10.70;99.90;;;;;;5036071;28;20157;-71
2021/05/20 03:28:55;;;;;;;85.93;50.80;;;10.70;99.90;;;;;;5035277;28;20748;-71
2021/05/20 03:31:21;;;;;;;75.20;48.73;;;10.70;99.90;;;;;;5058019;28;20160;-71
2021/05/20 03:33:47;;;;;;;80.07;49.33;;;10.60;99.90;;;;;;5075093;28;20151;-71
2021/05/20 03:36:12;;;;;;;79.03;51.10;;;10.70;99.90;;;;;;5075091;28;20155;-71
2021/05/20 03:38:38;;;;;;;75.27;50.70;;;10.60;99.90;;;;;;5053376;28;20728;-71
2021/05/20 03:41:03;;;;;;;85.67;51.60;;;10.60;99.90;;;;;;5045623;28;20645;-71
2021/05/20 03:43:31;;;;;;;75.60;51.50;;;10.70;99.90;;;;;;5043918;28;20176;-71
2021/05/20 03:45:57;;;;;;;80.80;52.97;;;10.70;99.90;;;;;;5039926;28;20646;-71
2021/05/20 03:48:22;;;;;;;85.90;52.60;;;10.70;99.90;;;;;;5048133;28;20418;-71
2021/05/20 03:50:48;;;;;;;80.63;53.40;;;10.70;99.90;;;;;;5047970;28;20187;-71
2021/05/20 03:53:13;;;;;;;84.30;51.73;;;10.70;99.90;;;;;;5043264;28;20208;-71
2021/05/20 03:55:39;;;;;;;82.47;52.90;;;10.70;99.90;;;;;;5044712;28;20672;-70
2021/05/20 03:58:04;;;;;;;80.33;52.13;;;10.70;99.90;;;;;;5034616;28;20164;-71
2021/05/20 04:00:30;;;;;;;71.87;50.40;;;10.60;99.90;;;;;;5038948;28;20203;-71
2021/05/20 04:02:55;;;;;;;66.63;47.70;;;10.70;99.90;;;;;;5054634;28;20244;-71
2021/05/20 04:05:21;;;;;;;63.90;41.27;;;10.60;99.90;;;;;;5051927;28;20235;-70
2021/05/20 04:07:47;;;;;;;63.37;46.13;;;10.60;99.90;;;;;;5034586;28;20161;-70
2021/05/20 04:10:13;;;;;;;59.80;41.80;;;10.60;99.90;;;;;;5044296;28;20176;-71
2021/05/20 04:12:38;;;;;;;57.53;41.13;;;10.60;99.90;;;;;;5054042;28;20656;-71
2021/05/20 04:15:04;;;;;;;58.27;41.90;;;10.70;99.90;;;;;;5053588;28;20483;-71
2021/05/20 04:17:30;;;;;;;53.83;38.87;;;10.70;99.90;;;;;;5052403;28;20152;-70
2021/05/20 04:19:55;;;;;;;54.90;40.70;;;10.70;99.90;;;;;;5034256;28;20411;-70
2021/05/20 04:22:21;;;;;;;50.07;39.97;;;10.70;99.90;;;;;;5034384;28;20157;-70
2021/05/20 04:24:46;;;;;;;49.73;38.67;;;10.70;99.90;;;;;;5035182;28;20169;-70
2021/05/20 04:27:12;;;;;;;46.97;36.87;;;10.70;99.90;;;;;;5040045;28;20672;-71
2021/05/20 04:29:38;;;;;;;45.60;36.23;;;10.70;99.90;;;;;;5050121;28;20725;-71
2021/05/20 04:32:04;;;;;;;48.43;34.90;;;10.80;99.90;;;;;;5034307;28;20197;-70
2021/05/20 04:34:29;;;;;;;46.00;35.10;;;10.80;99.90;;;;;;5035373;28;20295;-71
2021/05/20 04:36:55;;;;;;;45.00;34.40;;;10.80;99.90;;;;;;5046305;28;20971;-71
2021/05/20 04:39:21;;;;;;;45.97;34.67;;;10.90;99.90;;;;;;5034881;28;20161;-71
2021/05/20 04:41:46;;;;;;;42.90;34.40;;;10.90;99.90;;;;;;5040525;28;20529;-71
2021/05/20 04:44:12;;;;;;;44.83;33.43;;;10.90;99.90;;;;;;5053807;28;20152;-71
2021/05/20 04:46:37;;;;;;;44.37;33.47;;;11.00;99.90;;;;;;5041469;28;20181;-70
2021/05/20 04:49:11;;;;;;;43.53;35.50;;;11.00;99.90;;;;;;5033623;28;20195;-71
2021/05/20 04:51:37;;;;;;;42.93;35.60;;;11.00;99.90;;;;;;5034385;28;20187;-70
2021/05/20 04:54:06;;;;;;;46.83;36.23;;;10.90;99.90;;;;;;5034434;28;20774;-71
2021/05/20 04:56:32;;;;;;;43.20;33.23;;;10.90;99.90;;;;;;5041891;28;20501;-71
2021/05/20 04:58:57;;;;;;;49.80;35.70;;;10.90;99.90;;;;;;5042935;28;20526;-70
2021/05/20 05:01:23;;;;;;;48.13;36.73;;;10.90;99.90;;;;;;5050802;28;20180;-70
2021/05/20 05:03:49;;;;;;;45.33;36.50;;;10.90;99.90;;;;;;5073438;28;20156;-70
2021/05/20 05:06:14;;;;;;;49.47;38.27;;;11.00;99.90;;;;;;5070983;28;20215;-70
2021/05/20 05:08:40;;;;;;;51.90;39.03;;;11.00;99.90;;;;;;5067811;28;20210;-71
2021/05/20 05:11:05;;;;;;;48.80;38.67;;;11.00;99.90;;;;;;5033360;28;20164;-71
2021/05/20 05:13:31;;;;;;;47.43;38.17;;;11.00;99.90;;;;;;5033459;28;20286;-71
2021/05/20 05:15:57;;;;;;;55.87;41.37;;;11.10;99.90;;;;;;5049147;28;20169;-70
2021/05/20 05:18:23;;;;;;;46.13;38.10;;;11.20;99.90;;;;;;5033531;28;20612;-70
2021/05/20 05:20:48;;;;;;;55.33;42.40;;;11.20;99.90;;;;;;5033639;28;20497;-71
2021/05/20 05:23:14;;;;;;;49.33;39.00;;;11.20;99.90;;;;;;5033683;28;20751;-71
2021/05/20 05:25:39;;;;;;;56.07;41.50;;;11.20;99.90;;;;;;5033772;28;20624;-70
2021/05/20 05:28:06;;;;;;;55.37;39.97;;;11.30;99.90;;;;;;5033089;28;20192;-70
2021/05/20 05:30:31;;;;;;;58.40;43.20;;;11.30;99.90;;;;;;5033408;28;20251;-70
2021/05/20 05:32:57;;;;;;;55.00;42.30;;;11.40;99.90;;;;;;5033162;28;20868;-71
2021/05/20 05:35:23;;;;;;;56.70;42.00;;;11.40;99.90;;;;;;5040975;28;20935;-71
2021/05/20 05:37:48;;;;;;;56.47;41.77;;;11.50;99.90;;;;;;5053409;28;20160;-71
2021/05/20 05:40:15;;;;;;;58.23;43.03;;;11.50;99.90;;;;;;5053058;28;20519;-71
2021/05/20 05:42:41;;;;;;;58.70;42.00;;;11.50;99.90;;;;;;5052157;28;20175;-70
2021/05/20 05:45:09;;;;;;;55.97;43.20;;;11.60;99.90;;;;;;5052987;28;20453;-71
2021/05/20 05:47:35;;;;;;;54.33;43.57;;;11.70;99.90;;;;;;5050902;28;20410;-70
2021/05/20 05:50:08;;;;;;;58.53;43.10;;;11.70;99.90;;;;;;5042739;28;20419;-71
2021/05/20 05:52:34;;;;;;;54.37;42.40;;;11.80;99.90;;;;;;5040216;28;20571;-71
2021/05/20 05:55:00;;;;;;;54.10;41.20;;;11.80;99.90;;;;;;5051534;28;20413;-70
2021/05/20 05:57:25;;;;;;;51.40;40.17;;;11.90;99.90;;;;;;5050847;28;20395;-70
2021/05/20 05:59:51;;;;;;;57.97;39.07;;;11.90;99.90;;;;;;5049688;28;20449;-71
2021/05/20 06:02:18;;;;;;;51.47;39.50;;;12.00;99.90;;;;;;5043519;28;20176;-71
2021/05/20 06:04:44;;;;;;;49.80;38.23;;;12.10;99.90;;;;;;5043027;28;20430;-71
2021/05/20 06:07:09;;;;;;;54.67;37.70;;;12.10;99.90;;;;;;5044253;28;20480;-70
2021/05/20 06:09:35;;;;;;;53.70;38.83;;;12.10;99.90;;;;;;5043114;28;20188;-71
2021/05/20 06:12:00;;;;;;;55.90;42.10;;;12.20;99.90;;;;;;5040943;28;20223;-71
2021/05/20 06:14:26;;;;;;;63.67;43.77;;;12.30;99.90;;;;;;5048286;28;20184;-71
2021/05/20 06:16:51;;;;;;;56.23;41.40;;;12.30;99.90;;;;;;5045073;28;20184;-70
2021/05/20 06:19:17;;;;;;;52.20;40.37;;;12.40;99.90;;;;;;5037694;28;20176;-71
2021/05/20 06:21:43;;;;;;;54.17;38.00;;;12.40;99.90;;;;;;5040240;28;20528;-71
2021/05/20 06:24:10;;;;;;;49.47;40.27;;;12.50;99.90;;;;;;5039426;28;20184;-71
2021/05/20 06:26:36;;;;;;;49.37;38.17;;;12.60;99.90;;;;;;5044435;28;20668;-70
2021/05/20 06:29:01;;;;;;;52.20;40.03;;;12.80;99.90;;;;;;5033020;28;20415;-70
2021/05/20 06:31:28;;;;;;;52.30;39.27;;;12.80;99.90;;;;;;5032523;28;20184;-71
2021/05/20 06:33:54;;;;;;;50.90;41.33;;;12.90;99.90;;;;;;5033820;28;20208;-71
2021/05/20 06:36:20;;;;;;;47.43;38.73;;;13.00;99.90;;;;;;5047346;28;20504;-71
2021/05/20 06:38:46;;;;;;;46.40;37.57;;;13.00;99.90;;;;;;5053336;28;20167;-70
2021/05/20 06:41:11;;;;;;;46.70;36.30;;;13.10;99.90;;;;;;5056205;28;20435;-71
2021/05/20 06:43:38;;;;;;;41.87;34.63;;;13.10;99.90;;;;;;5056079;28;20164;-71
2021/05/20 06:46:05;;;;;;;41.33;33.90;;;13.20;99.90;;;;;;5051170;28;20559;-70
2021/05/20 06:48:31;;;;;;;44.50;33.87;;;13.30;99.90;;;;;;5047742;28;20415;-71
2021/05/20 06:50:57;;;;;;;41.73;33.50;;;13.30;99.90;;;;;;5048213;28;20938;-71
2021/05/20 06:53:24;;;;;;;39.27;33.17;;;13.40;99.90;;;;;;5055867;28;20243;-71
2021/05/20 06:55:53;;;;;;;39.50;32.67;;;13.50;99.90;;;;;;5042069;28;20203;-70
2021/05/20 07:01:05;;;;;;;35.87;31.73;;;13.70;99.90;;;;;;5041548;28;20754;-71
2021/05/20 07:03:30;;;;;;;35.87;31.93;;;13.80;99.90;;;;;;5045140;28;20513;-71
2021/05/20 07:05:56;;;;;;;33.13;29.63;;;14.00;99.90;;;;;;5035847;28;20189;-70
2021/05/20 07:08:22;;;;;;;35.97;32.00;;;14.10;99.90;;;;;;5047225;28;20183;-70
2021/05/20 07:10:47;;;;;;;30.73;27.47;;;14.20;99.90;;;;;;5051371;28;20185;-70
2021/05/20 07:13:13;;;;;;;30.33;26.93;;;14.40;99.90;;;;;;5042937;28;20298;-70
2021/05/20 07:15:39;;;;;;;28.80;25.90;;;14.40;99.90;;;;;;5054024;28;20179;-70
2021/05/20 07:18:04;;;;;;;30.83;26.80;;;14.40;99.90;;;;;;5043765;28;20245;-71
2021/05/20 07:20:30;;;;;;;30.87;27.00;;;14.40;99.90;;;;;;5047980;28;20180;-70
2021/05/20 07:22:55;;;;;;;29.30;25.53;;;14.30;99.90;;;;;;5054579;28;20247;-70
2021/05/20 07:25:21;;;;;;;29.27;26.30;;;14.30;99.90;;;;;;5041828;28;20207;-70
2021/05/20 07:27:47;;;;;;;28.80;25.77;;;14.40;99.90;;;;;;5047046;28;20184;-70
2021/05/20 07:30:13;;;;;;;28.97;25.73;;;14.40;99.90;;;;;;5047278;28;20191;-70
2021/05/20 07:32:38;;;;;;;27.93;24.63;;;14.40;99.90;;;;;;5048628;28;20299;-70
2021/05/20 07:35:06;;;;;;;29.93;24.83;;;14.40;99.90;;;;;;5037146;28;20514;-70
2021/05/20 07:37:32;;;;;;;28.13;25.30;;;14.20;99.90;;;;;;5049153;28;20276;-70
2021/05/20 07:39:57;;;;;;;28.53;25.60;;;14.10;99.90;;;;;;5052168;28;20427;-70
2021/05/20 07:42:23;;;;;;;30.37;26.83;;;14.00;99.90;;;;;;5035685;28;20982;-71
2021/05/20 07:44:54;;;;;;;29.37;26.30;;;13.80;99.90;;;;;;5035076;28;20244;-70
2021/05/20 07:47:19;;;;;;;28.10;25.10;;;13.70;99.90;;;;;;5036632;28;20192;-70
2021/05/20 07:49:45;;;;;;;30.53;26.83;;;13.70;99.90;;;;;;5034728;28;20462;-70
2021/05/20 07:52:10;;;;;;;29.67;26.57;;;13.70;99.90;;;;;;5034902;28;20291;-70
2021/05/20 07:54:36;;;;;;;29.73;26.57;;;13.80;99.90;;;;;;5050115;28;20179;-70
2021/05/20 07:57:02;;;;;;;30.80;27.43;;;13.70;99.90;;;;;;5054928;28;20556;-70
2021/05/20 07:59:28;;;;;;;32.13;28.77;;;13.70;99.90;;;;;;5053903;28;20200;-70
2021/05/20 08:02:06;;;;;;;34.00;30.17;;;13.70;99.90;;;;;;5043452;28;20431;-70
2021/05/20 08:04:32;;;;;;;38.70;32.07;;;13.60;99.90;;;;;;5034823;28;20558;-70
2021/05/20 08:07:10;;;;;;;36.20;31.60;;;13.60;99.90;;;;;;5034482;28;20451;-70
2021/05/20 08:09:37;;;;;;;39.23;33.23;;;13.60;99.90;;;;;;5040370;28;20454;-70
2021/05/20 08:12:03;;;;;;;37.57;31.37;;;13.50;99.90;;;;;;5049880;28;20462;-70
2021/05/20 08:14:29;;;;;;;35.17;30.20;;;13.40;99.90;;;;;;5054512;28;20398;-70
2021/05/20 08:16:55;;;;;;;33.50;29.17;;;13.50;99.90;;;;;;5041411;28;20514;-70
2021/05/20 08:19:20;;;;;;;33.73;28.63;;;13.50;99.90;;;;;;5034486;28;20183;-70
2021/05/20 08:21:46;;;;;;;34.20;30.47;;;13.60;99.90;;;;;;5034461;28;20351;-70
2021/05/20 08:24:11;;;;;;;37.70;32.67;;;13.70;99.90;;;;;;5034296;28;20160;-70
2021/05/20 08:26:37;;;;;;;39.60;33.20;;;13.70;99.90;;;;;;5034319;28;20172;-70
2021/05/20 08:29:03;;;;;;;41.87;33.67;;;13.70;99.90;;;;;;5044971;28;20190;-70
2021/05/20 08:31:29;;;;;;;39.10;31.40;;;13.70;99.90;;;;;;5046638;28;20184;-70
2021/05/20 08:33:56;;;;;;;37.57;31.30;;;13.70;99.90;;;;;;5038484;28;20896;-70
2021/05/20 08:36:22;;;;;;;40.13;33.17;;;13.60;99.90;;;;;;5034008;28;20165;-70
2021/05/20 08:38:48;;;;;;;37.27;29.00;;;13.60;99.90;;;;;;5049819;28;20931;-70
2021/05/20 08:41:18;;;;;;;38.93;31.37;;;13.60;99.90;;;;;;5050731;28;20436;-70
2021/05/20 08:43:43;;;;;;;36.03;30.10;;;13.60;99.90;;;;;;5042464;28;20414;-70
2021/05/20 08:46:09;;;;;;;33.27;29.37;;;13.60;99.90;;;;;;5045376;28;20419;-70
2021/05/20 08:48:35;;;;;;;33.90;26.87;;;13.50;99.90;;;;;;5034005;28;20224;-70
2021/05/20 08:51:01;;;;;;;28.80;25.73;;;13.60;99.90;;;;;;5034374;28;20592;-70
2021/05/20 08:53:27;;;;;;;32.53;27.47;;;13.70;99.90;;;;;;5033626;28;20495;-70
2021/05/20 08:55:53;;;;;;;30.73;27.43;;;13.80;99.90;;;;;;5034086;28;20436;-70
2021/05/20 08:58:24;;;;;;;30.17;26.97;;;13.90;99.90;;;;;;5033970;28;20177;-70
2021/05/20 09:00:50;;;;;;;30.13;26.20;;;13.90;99.90;;;;;;5039807;28;20430;-70
2021/05/20 09:03:18;;;;;;;28.63;25.57;;;13.90;99.90;;;;;;5052524;28;20398;-70
2021/05/20 09:05:43;;;;;;;33.00;26.43;;;13.90;99.90;;;;;;5057074;28;20433;-70
2021/05/20 09:08:14;;;;;;;31.83;27.17;;;14.00;99.90;;;;;;5042416;28;20982;-70
2021/05/20 09:10:41;;;;;;;27.57;23.83;;;14.00;99.90;;;;;;5033595;28;20240;-70
2021/05/20 09:13:12;;;;;;;31.60;22.60;;;14.10;99.90;;;;;;5033939;28;20533;-70
2021/05/20 09:15:42;;;;;;;28.03;23.50;;;14.20;99.90;;;;;;5047911;28;20418;-70
2021/05/20 09:20:49;;;;;;;25.00;21.17;;;14.30;99.90;;;;;;5070369;28;20880;-71
2021/05/20 09:23:18;;;;;;;23.70;21.10;;;14.80;99.90;;;;;;5070149;28;20379;-72
2021/05/20 09:25:46;;;;;;;23.57;20.40;;;15.00;99.90;;;;;;5050408;28;20403;-72
2021/05/20 09:28:13;;;;;;;24.20;20.27;;;15.10;99.90;;;;;;5051028;28;20989;-72
2021/05/20 09:30:41;;;;;;;26.17;23.33;;;15.20;99.90;;;;;;5056724;28;20898;-72
2021/05/20 09:33:09;;;;;;;25.97;23.27;;;15.20;99.90;;;;;;5070388;28;20397;-72
2021/05/20 09:40:51;;;;;;;22.80;20.37;;;15.10;99.90;;;;;;5124134;27;20577;-72
2021/05/20 09:43:19;;;;;;;22.73;20.23;;;15.50;99.90;;;;;;5103232;27;20503;-72
2021/05/20 09:45:47;;;;;;;21.03;18.70;;;15.70;99.90;;;;;;5101835;28;20417;-72
2021/05/20 09:48:12;;;;;;;21.33;19.27;;;15.90;99.90;;;;;;5102100;28;20459;-72
2021/05/20 09:50:41;;;;;;;20.33;18.07;;;16.20;99.90;;;;;;5103254;28;20409;-72
2021/05/20 09:53:09;;;;;;;18.97;17.03;;;16.50;99.90;;;;;;5095308;28;20782;-72
2021/05/20 09:55:35;;;;;;;22.03;19.77;;;17.20;99.90;;;;;;5101448;28;20527;-72
2021/05/20 09:58:09;;;;;;;19.23;17.33;;;17.60;99.90;;;;;;5102618;28;20446;-72
2021/05/20 10:00:34;;;;;;;20.47;18.37;;;17.90;99.90;;;;;;5106547;28;20280;-72
2021/05/20 10:03:09;;;;;;;18.37;16.57;;;18.20;99.90;;;;;;5092649;28;20511;-72
2021/05/20 10:05:38;;;;;;;20.70;17.40;;;18.30;99.90;;;;;;5105485;28;20206;-72
2021/05/20 10:08:06;;;;;;;19.27;17.37;;;18.50;99.90;;;;;;5099740;28;20425;-72
2021/05/20 10:10:35;;;;;;;19.17;17.37;;;18.70;99.90;;;;;;5096821;28;20427;-72
2021/05/20 10:13:11;;;;;;;19.67;17.77;;;18.80;99.90;;;;;;5110730;28;20377;-73
2021/05/20 10:15:39;;;;;;;19.57;17.33;;;18.90;99.90;;;;;;5107134;28;20791;-72
2021/05/20 10:18:07;;;;;;;18.00;16.40;;;19.20;99.90;;;;;;5110337;28;20449;-72
2021/05/20 10:20:34;;;;;;;20.57;18.57;;;19.40;99.90;;;;;;5110050;28;20492;-73
2021/05/20 10:23:01;;;;;;;18.50;16.73;;;19.10;96.60;;;;;;5110383;28;20845;-72
2021/05/20 10:25:28;;;;;;;19.73;17.70;;;18.90;98.40;;;;;;5110735;28;20388;-72
2021/05/20 10:27:53;;;;;;;19.33;17.07;;;18.90;99.60;;;;;;5095994;28;20431;-72
2021/05/20 10:30:22;;;;;;;18.10;16.30;;;18.90;99.40;;;;;;5096548;28;20794;-73
2021/05/20 10:32:47;;;;;;;18.70;16.90;;;18.80;98.80;;;;;;5099173;28;20639;-73
2021/05/20 10:35:15;;;;;;;16.97;15.33;;;18.60;99.10;;;;;;5102773;28;20949;-72
2021/05/20 10:37:42;;;;;;;17.17;15.57;;;18.40;99.20;;;;;;5100792;28;20442;-72
2021/05/20 10:42:44;;;;;;;14.83;13.53;;;18.40;99.40;;;;;;5124914;27;20523;-72
2021/05/20 10:45:26;;;;;;;14.27;12.97;;;18.00;98.70;;;;;;5111692;28;20449;-72
2021/05/20 10:59:33;;;;;;;14.47;13.07;;;18.30;99.10;;;;;;5090795;28;20510;-74
2021/05/20 11:01:59;;;;;;;13.30;12.10;;;18.40;97.70;;;;;;5077060;28;20479;-73
2021/05/20 11:04:42;;;;;;;12.77;11.57;;;18.20;97.00;;;;;;5070298;28;20386;-73
2021/05/20 11:07:08;;;;;;;12.80;11.70;;;18.10;98.10;;;;;;5085935;28;20181;-73
2021/05/20 11:09:44;;;;;;;13.67;12.30;;;18.20;99.20;;;;;;5090595;28;20444;-74
2021/05/20 11:12:09;;;;;;;12.47;11.20;;;18.20;99.10;;;;;;5090968;28;20561;-74
2021/05/20 11:14:36;;;;;;;12.03;10.70;;;18.20;97.30;;;;;;5090077;28;20401;-73
2021/05/20 11:17:30;;;;;;;11.47;10.37;;;18.20;97.50;;;;;;5090268;28;20222;-73
2021/05/20 11:20:32;;;;;;;10.77;9.57;;;18.10;97.00;;;;;;5089541;28;20458;-73
2021/05/20 11:25:59;;;;;;;8.93;8.03;;;18.00;95.40;;;;;;5107230;27;20571;-74
2021/05/20 11:28:25;;;;;;;9.77;8.80;;;17.80;96.30;;;;;;5101064;28;20399;-74
2021/05/20 11:30:59;;;;;;;9.90;8.40;;;17.80;96.40;;;;;;5108822;28;20476;-74
2021/05/20 11:33:28;;;;;;;10.93;9.07;;;17.80;96.40;;;;;;5096383;28;20428;-75
2021/05/20 11:39:03;;;;;;;8.77;7.67;;;17.70;95.80;;;;;;5091064;27;20599;-72
2021/05/20 11:41:29;;;;;;;10.13;9.30;;;17.70;96.60;;;;;;5088487;28;20413;-72
2021/05/20 11:46:40;;;;;;;7.67;6.97;;;17.80;96.20;;;;;;5090862;27;21012;-73
2021/05/20 11:49:24;;;;;;;7.23;6.63;;;17.90;96.00;;;;;;5090685;28;20762;-73
2021/05/20 11:54:34;;;;;;;8.00;7.20;;;17.90;93.90;;;;;;5123540;27;20582;-75
2021/05/20 11:57:01;;;;;;;8.40;7.60;;;18.00;94.10;;;;;;5090665;28;20405;-75
2021/05/20 12:02:34;;;;;;;8.00;7.20;;;18.10;93.90;;;;;;5070310;28;20866;-72
2021/05/20 12:07:41;;;;;;;7.57;6.87;;;18.20;92.40;;;;;;5111684;27;20531;-71
2021/05/20 12:12:53;;;;;;;7.50;6.50;;;18.30;92.50;;;;;;5110920;27;20502;-73
2021/05/20 12:15:20;;;;;;;7.30;6.70;;;18.10;90.10;;;;;;5093784;28;20519;-73
2021/05/20 12:17:46;;;;;;;8.40;7.70;;;18.10;90.40;;;;;;5090458;28;20498;-73
2021/05/20 12:20:14;;;;;;;7.00;6.40;;;18.10;90.60;;;;;;5090636;28;20906;-72
2021/05/20 12:22:39;;;;;;;6.80;6.10;;;18.00;91.00;;;;;;5090859;28;20393;-72
2021/05/20 12:27:45;;;;;;;8.30;7.50;;;18.00;92.00;;;;;;5090500;27;20519;-72
2021/05/20 12:30:21;;;;;;;7.17;6.40;;;17.80;92.30;;;;;;5090307;28;20515;-73
2021/05/20 12:32:49;;;;;;;6.53;5.93;;;17.80;91.50;;;;;;5070387;28;20390;-72
2021/05/20 12:43:29;;;;;;;6.57;5.97;;;17.80;92.20;;;;;;5110978;27;20862;-72
2021/05/20 12:53:55;;;;;;;6.07;5.00;;;18.10;90.10;;;;;;5110949;27;20503;-72
2021/05/20 12:59:01;;;;;;;6.10;4.93;;;18.00;86.60;;;;;;5106946;27;20587;-72
2021/05/20 13:07:06;;;;;;;7.20;5.90;;;18.10;84.70;;;;;;5126580;27;20521;-72
2021/05/20 13:15:05;;;;;;;5.10;4.60;;;18.40;86.50;;;;;;5125831;27;21126;-72
2021/05/20 13:23:10;;;;;;;5.10;4.60;;;18.70;83.80;;;;;;5097850;27;20594;-73
2021/05/20 13:25:36;;;;;;;6.47;5.17;;;18.70;84.50;;;;;;5083360;28;20508;-73
2021/05/20 13:28:03;;;;;;;12.70;3.70;;;18.70;81.50;;;;;;5077044;28;20989;-73
2021/05/20 13:33:10;;;;;;;8.33;5.37;;;18.90;84.40;;;;;;5069108;28;20504;-72
2021/05/20 13:35:36;;;;;;;3.90;3.13;;;19.00;83.50;;;;;;5068852;28;20378;-72
2021/05/20 13:38:01;;;;;;;4.40;4.00;;;19.10;83.70;;;;;;5068218;28;20382;-72
2021/05/20 13:40:29;;;;;;;5.90;4.50;;;19.20;81.10;;;;;;5050624;28;20263;-72
2021/05/20 13:42:56;;;;;;;5.20;4.53;;;19.10;78.40;;;;;;5048232;28;20182;-72
2021/05/20 13:45:23;;;;;;;5.53;4.70;;;19.10;82.00;;;;;;5054771;28;20405;-72
2021/05/20 13:47:50;;;;;;;5.43;4.93;;;19.20;79.10;;;;;;5070357;28;20477;-72
2021/05/20 13:50:16;;;;;;;5.00;4.40;;;19.30;77.50;;;;;;5070691;28;20447;-72
2021/05/20 13:52:44;;;;;;;3.70;3.40;;;19.30;75.20;;;;;;5070016;28;20840;-72
2021/05/20 13:55:14;;;;;;;5.00;3.27;;;19.30;75.00;;;;;;5070168;28;20151;-72